Time;durP1;ratioP1;P1;durP2;ratioP2;P2;SDS_P1;SDS_P2;PMS_P1;PMS_P2;Temp;Humidity;BMP_temperature;BMP_pressure;BME280_temperature;BME280_humidity;BME280_pressure;Samples;Min_cycle;Max_cycle;Signal;HPM_P1;HPM_P2
2022/08/16 00:00:28;;;;;;;12.82;10.10;;;;;;;15.76;100.00;97284.17;1712919;83;20978;-84
2022/08/16 00:02:56;;;;;;;;;;;;;;;15.71;100.00;97286.28;1725257;82;20967;-87
2022/08/16 00:05:23;;;;;;;13.95;10.05;;;;;;;15.65;100.00;97285.69;1696963;82;20759;-86
2022/08/16 00:07:49;;;;;;;14.55;9.40;;;;;;;15.58;100.00;97281.84;1693936;83;20996;-87
2022/08/16 00:10:15;;;;;;;16.97;10.70;;;;;;;15.58;100.00;97286.73;1729049;82;21031;-86
2022/08/16 00:12:41;;;;;;;15.28;9.53;;;;;;;15.56;100.00;97284.91;1693788;84;21066;-87
2022/08/16 00:15:16;;;;;;;14.13;10.55;;;;;;;15.61;100.00;97287.47;1728687;82;21065;-83
2022/08/16 00:17:41;;;;;;;14.90;10.20;;;;;;;15.61;100.00;97285.30;1729148;82;21086;-87
2022/08/16 00:20:09;;;;;;;20.08;12.28;;;;;;;15.59;100.00;97286.17;1720378;81;20886;-87
2022/08/16 00:22:36;;;;;;;14.93;11.00;;;;;;;15.58;100.00;97286.73;1722951;82;21050;-87
2022/08/16 00:25:06;;;;;;;13.20;10.23;;;;;;;15.56;100.00;97280.81;1728732;82;21026;-86
2022/08/16 00:27:32;;;;;;;15.18;10.15;;;;;;;15.56;100.00;97280.02;1693847;83;21042;-86
2022/08/16 00:29:58;;;;;;;13.58;10.68;;;;;;;15.55;100.00;97277.82;1692047;83;21581;-87
2022/08/16 00:32:24;;;;;;;16.00;11.20;;;;;;;15.54;100.00;97277.59;1677923;85;20971;-85
2022/08/16 00:34:50;;;;;;;17.12;11.00;;;;;;;15.53;100.00;97280.09;1649991;85;20950;-87
2022/08/16 00:37:16;;;;;;;12.40;9.83;;;;;;;15.52;100.00;97277.12;1722942;83;21663;-84
2022/08/16 00:39:42;;;;;;;11.93;8.78;;;;;;;15.50;100.00;97280.76;1702499;83;21897;-86
2022/08/16 00:42:08;;;;;;;17.02;9.58;;;;;;;15.47;100.00;97286.32;1722586;82;20954;-85
2022/08/16 00:44:34;;;;;;;11.75;9.15;;;;;;;15.43;100.00;97289.45;1723730;82;20990;-86
2022/08/16 00:47:04;;;;;;;13.72;8.98;;;;;;;15.37;100.00;97287.23;1722816;83;20895;-83
2022/08/16 00:49:31;;;;;;;16.15;8.93;;;;;;;15.33;100.00;97278.91;1722539;82;20923;-87
2022/08/16 00:51:58;;;;;;;15.10;9.20;;;;;;;15.32;100.00;97283.34;1722765;83;21735;-86
2022/08/16 00:54:26;;;;;;;15.68;8.55;;;;;;;15.31;100.00;97288.00;1724169;82;20963;-83
2022/08/16 00:56:52;;;;;;;15.93;9.43;;;;;;;15.27;100.00;97291.13;1734445;82;21236;-87
2022/08/16 00:59:20;;;;;;;13.35;9.68;;;;;;;15.24;100.00;97290.44;1728821;82;20998;-84
2022/08/16 01:01:46;;;;;;;15.68;9.93;;;;;;;15.21;100.00;97287.80;1724747;83;21434;-84
2022/08/16 01:04:13;;;;;;;14.23;10.18;;;;;;;15.24;100.00;97288.50;1724252;83;22043;-86
2022/08/16 01:06:40;;;;;;;13.95;9.25;;;;;;;15.26;100.00;97285.44;1703562;83;20989;-87
2022/08/16 01:09:06;;;;;;;17.15;10.48;;;;;;;15.32;100.00;97283.34;1724226;82;21045;-87
2022/08/16 01:11:33;;;;;;;16.60;9.78;;;;;;;15.34;100.00;97285.97;1702163;83;20993;-83
2022/08/16 01:14:14;;;;;;;15.28;9.83;;;;;;;15.34;100.00;97281.88;1702381;83;20974;-87
2022/08/16 01:16:40;;;;;;;14.68;10.30;;;;;;;15.33;100.00;97283.00;1729027;82;21291;-83
2022/08/16 01:19:27;;;;;;;16.82;11.05;;;;;;;15.34;100.00;97286.53;1692231;83;21041;-87
2022/08/16 01:21:59;;;;;;;15.28;10.53;;;;;;;15.34;100.00;97285.97;1674998;84;21040;-87
2022/08/16 01:24:41;;;;;;;15.18;10.40;;;;;;;15.37;100.00;97279.05;1693717;83;20998;-83
2022/08/16 01:27:21;;;;;;;16.85;11.25;;;;;;;15.37;100.00;97282.57;1723461;82;21113;-87
2022/08/16 01:30:07;;;;;;;16.60;9.83;;;;;;;15.38;100.00;97282.00;1727180;81;21124;-84
2022/08/16 01:32:34;;;;;;;17.42;10.32;;;;;;;15.34;100.00;97284.60;1747583;81;20998;-84
2022/08/16 01:35:05;;;;;;;13.72;11.10;;;;;;;15.34;100.00;97279.71;1729370;82;21345;-87
2022/08/16 01:37:43;;;;;;;14.90;10.35;;;;;;;15.33;100.00;97279.48;1729151;82;20931;-84
2022/08/16 01:40:10;;;;;;;14.10;10.00;;;;;;;15.34;100.00;97283.23;1688406;84;20973;-87
2022/08/16 01:42:36;;;;;;;19.27;11.63;;;;;;;15.29;100.00;97287.50;1693807;84;21863;-83
2022/08/16 01:45:04;;;;;;;14.40;9.33;;;;;;;15.25;100.00;97282.48;1693629;84;21039;-84
2022/08/16 01:47:30;;;;;;;15.68;9.88;;;;;;;15.22;100.00;97282.58;1728853;82;21437;-87
2022/08/16 01:49:56;;;;;;;13.40;9.83;;;;;;;15.19;100.00;97288.67;1693852;84;21408;-84
2022/08/16 01:52:22;;;;;;;15.85;10.75;;;;;;;15.15;100.00;97291.83;1693725;84;20899;-84
2022/08/16 01:54:48;;;;;;;17.52;9.53;;;;;;;15.14;100.00;97294.33;1693959;83;21185;-87
2022/08/16 01:57:14;;;;;;;13.22;10.10;;;;;;;15.15;100.00;97293.77;1693510;84;20857;-84
2022/08/16 01:59:40;;;;;;;15.23;9.38;;;;;;;15.13;100.00;97300.12;1693465;84;20971;-87
2022/08/16 02:02:06;;;;;;;13.98;9.00;;;;;;;15.08;100.00;97299.71;1693467;84;20956;-84
2022/08/16 02:04:33;;;;;;;10.72;9.10;;;;;;;15.04;100.00;97294.69;1728505;82;20994;-84
2022/08/16 02:06:59;;;;;;;13.13;8.95;;;;;;;15.02;100.00;97289.30;1722830;82;21133;-87
2022/08/16 02:09:25;;;;;;;11.90;9.30;;;;;;;15.01;100.00;97289.06;1723302;82;21046;-87
2022/08/16 02:11:56;;;;;;;13.03;9.53;;;;;;;14.98;100.00;97282.91;1725582;83;20943;-87
2022/08/16 02:14:25;;;;;;;20.90;10.28;;;;;;;14.95;100.00;97282.44;1693767;84;21083;-84
2022/08/16 02:16:51;;;;;;;14.87;9.25;;;;;;;14.91;100.00;97284.20;1693849;83;20904;-86
2022/08/16 02:19:18;;;;;;;10.85;8.63;;;;;;;14.85;100.00;97277.31;1723637;82;22056;-83
2022/08/16 02:21:51;;;;;;;12.10;9.33;;;;;;;14.84;100.00;97279.80;1729043;82;21027;-86
2022/08/16 02:24:17;;;;;;;16.55;9.58;;;;;;;14.84;100.00;97283.89;1729005;82;20960;-84
2022/08/16 02:26:43;;;;;;;16.57;9.63;;;;;;;14.84;100.00;97287.19;1729138;82;21526;-84
2022/08/16 02:29:09;;;;;;;11.18;8.28;;;;;;;14.82;100.00;97288.08;1728892;83;20892;-86
2022/08/16 02:31:35;;;;;;;12.45;9.28;;;;;;;14.83;100.00;97290.48;1733814;80;21011;-85
2022/08/16 02:34:01;;;;;;;10.68;7.35;;;;;;;14.84;100.00;97296.73;1693042;83;21083;-87
2022/08/16 02:36:27;;;;;;;10.15;8.03;;;;;;;14.80;100.00;97295.23;1693716;84;20967;-87
2022/08/16 02:38:53;;;;;;;12.15;7.75;;;;;;;14.79;100.00;97295.55;1693435;84;20951;-83
2022/08/16 02:41:19;;;;;;;11.35;8.93;;;;;;;14.76;100.00;97299.70;1729027;81;21538;-87
2022/08/16 02:43:45;;;;;;;10.58;8.25;;;;;;;14.76;100.00;97295.63;1693550;84;21041;-82
2022/08/16 02:46:11;;;;;;;11.25;7.80;;;;;;;14.73;100.00;97294.12;1724484;82;21033;-84
2022/08/16 02:48:38;;;;;;;18.00;8.18;;;;;;;14.68;100.00;97289.62;1697408;82;21035;-84
2022/08/16 02:51:04;;;;;;;10.88;7.47;;;;;;;14.64;100.00;97294.93;1703347;82;21035;-87
2022/08/16 02:53:30;;;;;;;9.83;8.05;;;;;;;14.61;100.00;97295.59;1690823;82;21348;-87
2022/08/16 02:55:56;;;;;;;9.78;7.87;;;;;;;14.58;100.00;97295.41;1724504;82;21593;-84
2022/08/16 02:58:22;;;;;;;15.08;9.10;;;;;;;14.54;100.00;97296.63;1722876;82;21010;-84
2022/08/16 03:00:49;;;;;;;12.10;9.40;;;;;;;14.56;100.00;97303.13;1727900;82;21010;-87
2022/08/16 03:03:15;;;;;;;14.47;10.43;;;;;;;14.57;100.00;97296.55;1693698;83;21008;-87
2022/08/16 03:05:41;;;;;;;13.28;8.30;;;;;;;14.59;100.00;97300.54;1729204;82;20999;-85
2022/08/16 03:08:08;;;;;;;12.47;9.30;;;;;;;14.62;100.00;97299.11;1734282;81;22013;-84
2022/08/16 03:10:35;;;;;;;17.95;9.00;;;;;;;14.62;100.00;97296.39;1731163;81;20966;-84
2022/08/16 03:13:01;;;;;;;15.68;10.00;;;;;;;14.60;100.00;97295.89;1722192;83;22093;-87
2022/08/16 03:15:27;;;;;;;14.50;9.93;;;;;;;14.60;100.00;97298.61;1701845;82;21400;-84
2022/08/16 03:17:53;;;;;;;17.90;10.23;;;;;;;14.63;100.00;97302.08;1692420;84;21035;-84
2022/08/16 03:20:19;;;;;;;16.12;10.90;;;;;;;14.64;100.00;97295.50;1650090;85;21196;-86
2022/08/16 03:22:45;;;;;;;12.37;9.73;;;;;;;14.63;100.00;97289.24;1630190;85;21478;-84
2022/08/16 03:25:13;;;;;;;17.32;10.60;;;;;;;14.64;100.00;97288.11;1684609;84;20879;-86
2022/08/16 03:27:39;;;;;;;17.50;10.13;;;;;;;14.65;100.00;97289.72;1728964;82;20960;-87
2022/08/16 03:30:15;;;;;;;13.40;9.65;;;;;;;14.69;100.00;97288.48;1696718;83;21012;-87
2022/08/16 03:32:41;;;;;;;15.10;10.90;;;;;;;14.75;100.00;97290.50;1675341;85;22049;-84
2022/08/16 03:35:07;;;;;;;12.30;9.40;;;;;;;14.78;100.00;97288.47;1650332;85;20982;-84
2022/08/16 03:37:34;;;;;;;18.30;10.65;;;;;;;14.80;100.00;97297.16;1671581;84;21048;-84
2022/08/16 03:40:00;;;;;;;14.95;9.23;;;;;;;14.79;100.00;97295.55;1671347;85;21043;-83
2022/08/16 03:42:26;;;;;;;13.28;9.53;;;;;;;14.75;100.00;97309.02;1679928;85;21021;-84
2022/08/16 03:44:52;;;;;;;12.93;9.73;;;;;;;14.75;100.00;97307.66;1724088;83;20934;-87
2022/08/16 03:47:18;;;;;;;13.32;9.80;;;;;;;14.74;100.00;97310.15;1724209;83;20925;-87
2022/08/16 03:49:46;;;;;;;12.80;9.63;;;;;;;14.74;100.00;97305.26;1724254;83;20973;-87
2022/08/16 03:52:12;;;;;;;10.58;8.08;;;;;;;14.73;100.00;97302.30;1724308;83;21009;-87
2022/08/16 03:54:38;;;;;;;22.13;9.40;;;;;;;14.77;100.00;97305.96;1728593;82;21007;-87
2022/08/16 03:57:04;;;;;;;11.88;9.03;;;;;;;14.77;100.00;97308.69;1729168;83;20952;-87
2022/08/16 03:59:30;;;;;;;13.43;9.43;;;;;;;14.76;100.00;97315.27;1693709;84;20983;-87
2022/08/16 04:01:58;;;;;;;16.85;9.23;;;;;;;14.74;100.00;97310.71;1693768;84;20931;-84
2022/08/16 04:04:24;;;;;;;11.05;9.13;;;;;;;14.74;100.00;97314.23;1694059;84;20967;-83
2022/08/16 04:06:50;;;;;;;16.57;9.45;;;;;;;14.73;100.00;97311.84;1693872;84;20951;-84
2022/08/16 04:09:15;;;;;;;13.90;9.10;;;;;;;14.71;100.00;97312.73;1686436;84;21726;-87
2022/08/16 04:11:41;;;;;;;15.00;9.55;;;;;;;14.67;100.00;97307.11;1729376;82;20939;-85
2022/08/16 04:14:07;;;;;;;13.83;8.85;;;;;;;14.67;100.00;97309.27;1673991;85;20945;-84
2022/08/16 04:16:33;;;;;;;14.43;9.18;;;;;;;14.67;100.00;97312.56;1674732;85;21477;-84
2022/08/16 04:18:59;;;;;;;16.10;9.58;;;;;;;14.68;100.00;97313.59;1659107;85;21629;-87
2022/08/16 04:21:25;;;;;;;15.15;9.15;;;;;;;14.71;100.00;97320.35;1678816;83;21514;-83
2022/08/16 04:23:51;;;;;;;14.43;9.88;;;;;;;14.74;100.00;97314.80;1645087;86;21583;-86
2022/08/16 04:26:17;;;;;;;10.48;8.45;;;;;;;14.70;100.00;97322.84;1729272;82;20907;-84
2022/08/16 04:28:43;;;;;;;7.45;6.47;;;;;;;14.66;100.00;97324.03;1699672;83;20963;-87
2022/08/16 04:31:10;;;;;;;12.50;5.55;;;;;;;14.58;100.00;97317.22;1729281;81;20856;-84
2022/08/16 04:33:35;;;;;;;9.70;6.15;;;;;;;14.53;100.00;97323.66;1729259;83;21196;-86
2022/08/16 04:36:02;;;;;;;8.50;5.97;;;;;;;14.40;100.00;97322.66;1720740;83;20902;-87
2022/08/16 04:38:28;;;;;;;8.13;5.60;;;;;;;14.33;100.00;97320.97;1727059;82;21006;-86
2022/08/16 04:40:54;;;;;;;14.10;5.50;;;;;;;14.33;100.00;97320.17;1729441;83;20840;-83
2022/08/16 04:43:20;;;;;;;11.12;5.72;;;;;;;14.34;100.00;97323.93;1693625;84;20979;-84
2022/08/16 04:45:46;;;;;;;7.60;5.35;;;;;;;14.28;100.00;97324.44;1729164;82;21328;-84
2022/08/16 04:48:12;;;;;;;9.33;5.90;;;;;;;14.28;100.00;97330.69;1693601;84;20999;-84
2022/08/16 04:50:38;;;;;;;9.30;6.80;;;;;;;14.32;100.00;97331.63;1733081;81;20958;-84
2022/08/16 04:53:04;;;;;;;6.40;5.42;;;;;;;14.35;100.00;97337.80;1726243;82;20947;-86
2022/08/16 04:55:30;;;;;;;12.00;6.67;;;;;;;14.43;100.00;97332.67;1729058;82;20996;-84
2022/08/16 04:57:56;;;;;;;10.32;7.40;;;;;;;14.48;100.00;97337.44;1707816;82;21450;-84
2022/08/16 05:00:32;;;;;;;11.12;8.05;;;;;;;14.54;100.00;97339.45;1700655;83;20888;-86
2022/08/16 05:02:57;;;;;;;10.80;8.00;;;;;;;14.63;100.00;97335.59;1713582;82;21037;-84
2022/08/16 05:05:23;;;;;;;13.00;8.68;;;;;;;14.69;100.00;97329.39;1724139;82;20844;-84
2022/08/16 05:07:49;;;;;;;22.55;9.20;;;;;;;14.77;100.00;97331.87;1721373;82;20952;-86
2022/08/16 05:10:15;;;;;;;8.63;7.40;;;;;;;14.87;100.00;97337.02;1720360;83;20947;-86
2022/08/16 05:12:41;;;;;;;13.62;7.78;;;;;;;15.01;100.00;97337.60;1721979;82;20991;-84
2022/08/16 05:15:08;;;;;;;9.45;7.28;;;;;;;15.12;100.00;97338.05;1716146;82;21604;-86
2022/08/16 05:17:35;;;;;;;13.35;8.30;;;;;;;15.26;100.00;97339.22;1696389;82;21024;-83
2022/08/16 05:20:01;;;;;;;11.53;7.85;;;;;;;15.34;100.00;97336.47;1723146;83;21058;-86
2022/08/16 05:22:27;;;;;;;9.98;7.92;;;;;;;15.50;100.00;97343.55;1678120;85;21141;-86
2022/08/16 05:24:52;;;;;;;12.18;7.92;;;;;;;15.69;100.00;97348.63;1670026;85;20902;-84
2022/08/16 05:27:18;;;;;;;17.77;9.05;;;;;;;15.87;100.00;97345.24;1664202;84;20982;-84
2022/08/16 05:29:44;;;;;;;14.50;8.55;;;;;;;16.10;100.00;97354.75;1728252;83;20979;-86
2022/08/16 05:32:10;;;;;;;10.90;8.43;;;;;;;16.31;100.00;97352.82;1698729;81;21544;-85
2022/08/16 05:34:36;;;;;;;18.02;10.48;;;;;;;16.55;100.00;97351.36;1725495;83;21299;-86
2022/08/16 05:37:02;;;;;;;16.37;10.15;;;;;;;16.77;100.00;97353.78;1717640;82;20884;-87
2022/08/16 05:39:28;;;;;;;13.72;10.28;;;;;;;17.01;100.00;97360.48;1713853;82;20980;-86
2022/08/16 05:41:54;;;;;;;15.80;10.95;;;;;;;17.14;100.00;97360.74;1720742;82;20883;-86
2022/08/16 05:44:22;;;;;;;12.65;9.20;;;;;;;17.30;100.00;97356.80;1731115;82;21019;-84
2022/08/16 05:46:50;;;;;;;11.78;7.95;;;;;;;17.48;100.00;97349.40;1693532;83;21165;-84
2022/08/16 05:49:17;;;;;;;17.02;9.48;;;;;;;17.56;100.00;97354.55;1694445;83;49342;-84
2022/08/16 05:51:43;;;;;;;13.65;9.78;;;;;;;17.76;100.00;97353.66;1726566;83;21011;-87
2022/08/16 05:54:10;;;;;;;15.78;9.23;;;;;;;17.87;100.00;97364.99;1698155;83;21045;-84
2022/08/16 05:56:37;;;;;;;9.93;7.90;;;;;;;18.02;100.00;97362.91;1696053;83;21427;-87
2022/08/16 05:59:03;;;;;;;12.13;9.10;;;;;;;18.08;100.00;97359.37;1693958;83;21971;-83
2022/08/16 06:01:29;;;;;;;13.78;8.95;;;;;;;18.15;100.00;97358.80;1651854;86;21018;-87
2022/08/16 06:03:55;;;;;;;10.28;8.58;;;;;;;18.27;100.00;97353.28;1721960;81;20990;-84
2022/08/16 06:06:21;;;;;;;12.00;8.73;;;;;;;18.35;100.00;97355.67;1716158;82;20997;-84
2022/08/16 06:08:47;;;;;;;16.12;8.93;;;;;;;18.44;100.00;97359.08;1726087;81;21074;-87
2022/08/16 06:11:13;;;;;;;12.25;7.90;;;;;;;18.52;100.00;97361.68;1713438;81;21620;-84
2022/08/16 06:13:41;;;;;;;11.60;8.58;;;;;;;18.76;100.00;97359.47;1718152;81;22256;-84
2022/08/16 06:16:07;;;;;;;10.35;8.55;;;;;;;18.91;100.00;97355.77;1720455;81;21063;-83
2022/08/16 06:18:32;;;;;;;15.03;11.93;;;;;;;18.98;100.00;97360.08;1716564;81;20980;-87
2022/08/16 06:20:59;;;;;;;11.75;9.33;;;;;;;19.11;100.00;97360.23;1718870;81;20920;-86
2022/08/16 06:23:25;;;;;;;11.00;8.73;;;;;;;19.31;100.00;97359.22;1712532;81;21249;-84
2022/08/16 06:25:52;;;;;;;12.35;9.25;;;;;;;19.44;100.00;97361.30;1722037;81;21042;-85
2022/08/16 06:28:18;;;;;;;12.53;9.25;;;;;;;19.58;100.00;97363.66;1689621;83;21423;-84
2022/08/16 06:30:44;;;;;;;14.07;9.63;;;;;;;19.65;100.00;97363.27;1717655;81;20954;-84
2022/08/16 06:33:13;;;;;;;11.65;9.00;;;;;;;19.80;100.00;97364.39;1721897;81;21014;-84
2022/08/16 06:35:38;;;;;;;12.07;10.18;;;;;;;20.00;100.00;97356.45;1717471;81;21764;-83
2022/08/16 06:38:04;;;;;;;14.30;9.45;;;;;;;20.16;100.00;97366.60;1718240;81;20996;-84
2022/08/16 06:40:31;;;;;;;12.63;9.45;;;;;;;20.28;100.00;97356.87;1718224;81;20912;-84
2022/08/16 06:42:57;;;;;;;13.13;9.73;;;;;;;20.33;100.00;97364.83;1717305;81;21073;-84
2022/08/16 06:45:23;;;;;;;19.20;9.50;;;;;;;20.40;100.00;97367.75;1682483;83;20963;-85
2022/08/16 06:47:50;;;;;;;21.27;10.08;;;;;;;20.55;100.00;97364.19;1669653;83;21139;-86
2022/08/16 06:50:16;;;;;;;14.93;10.10;;;;;;;20.72;100.00;97369.05;1704526;81;21047;-86
2022/08/16 06:52:42;;;;;;;16.97;10.10;;;;;;;20.88;100.00;97370.36;1668305;83;20989;-86
2022/08/16 06:55:09;;;;;;;12.58;9.93;;;;;;;20.96;100.00;97372.10;1687116;83;21376;-84
2022/08/16 06:57:35;;;;;;;15.13;10.08;;;;;;;20.84;100.00;97374.41;1660447;85;20978;-85
2022/08/16 07:00:10;;;;;;;10.88;8.65;;;;;;;20.84;100.00;97377.95;1659989;85;21187;-86
2022/08/16 07:02:31;;;;;;;13.50;10.08;;;;;;;20.85;100.00;97380.16;1668745;83;20986;-85
2022/08/16 07:04:57;;;;;;;16.17;10.05;;;;;;;20.85;100.00;97385.66;1667266;84;21052;-85
2022/08/16 07:07:23;;;;;;;14.07;9.18;;;;;;;20.95;100.00;97388.41;1668646;83;21026;-85
2022/08/16 07:09:49;;;;;;;10.68;9.13;;;;;;;21.00;100.00;97389.48;1713418;82;20975;-84
2022/08/16 07:12:16;;;;;;;15.13;10.20;;;;;;;21.20;100.00;97392.45;1688555;83;21521;-84
2022/08/16 07:14:43;;;;;;;12.25;9.35;;;;;;;21.65;100.00;97397.25;1686136;83;21175;-86
2022/08/16 07:17:09;;;;;;;15.75;8.83;;;;;;;22.14;100.00;97388.83;1717759;81;21171;-84
2022/08/16 07:19:35;;;;;;;10.23;8.28;;;;;;;22.17;100.00;97388.08;1684846;83;21470;-84
2022/08/16 07:22:02;;;;;;;10.78;7.65;;;;;;;22.45;98.96;97384.94;1719847;81;21464;-85
2022/08/16 07:24:29;;;;;;;9.38;7.58;;;;;;;22.71;97.82;97392.39;1719826;81;21108;-84
2022/08/16 07:26:55;;;;;;;13.38;8.08;;;;;;;22.92;96.98;97388.56;1717917;81;21732;-84
2022/08/16 07:29:21;;;;;;;10.32;6.80;;;;;;;23.29;97.80;97387.21;1717692;81;20973;-86
2022/08/16 07:31:47;;;;;;;7.62;6.40;;;;;;;23.76;95.71;97388.52;1668593;83;20885;-85
2022/08/16 07:34:13;;;;;;;7.90;7.10;;;;;;;24.41;92.40;97377.36;1726342;81;20979;-84
2022/08/16 07:36:40;;;;;;;10.30;7.10;;;;;;;25.26;93.00;97374.22;1729398;82;21718;-85
2022/08/16 07:39:07;;;;;;;8.55;7.55;;;;;;;25.72;92.54;97378.52;1719124;81;21088;-87
2022/08/16 07:41:35;;;;;;;12.43;6.42;;;;;;;26.33;89.04;97378.50;1719255;81;21312;-87
2022/08/16 07:44:01;;;;;;;12.40;6.73;;;;;;;26.54;83.72;97370.73;1719110;82;21424;-87
2022/08/16 07:46:27;;;;;;;7.35;6.65;;;;;;;26.66;81.47;97366.95;1722836;81;21483;-85
2022/08/16 07:48:53;;;;;;;7.58;6.25;;;;;;;26.97;75.84;97365.83;1718836;81;21777;-88
2022/08/16 07:51:19;;;;;;;6.50;5.80;;;;;;;27.70;79.30;97363.09;1721895;81;21098;-87
2022/08/16 07:53:50;;;;;;;6.47;5.78;;;;;;;28.29;77.17;97367.81;1690182;83;21042;-85
2022/08/16 07:56:13;;;;;;;9.95;6.35;;;;;;;28.83;70.59;97368.03;1721291;82;21042;-88
2022/08/16 07:58:39;;;;;;;7.45;6.17;;;;;;;28.71;68.64;97375.52;1717220;81;20986;-88
2022/08/16 08:01:05;;;;;;;6.65;5.95;;;;;;;28.36;70.18;97371.30;1718511;81;21174;-85
2022/08/16 08:03:32;;;;;;;6.62;5.42;;;;;;;28.71;69.87;97366.55;1679855;83;21507;-88
2022/08/16 08:06:00;;;;;;;5.95;5.20;;;;;;;29.27;66.90;97367.70;1652767;85;21026;-85
2022/08/16 08:08:26;;;;;;;7.00;6.30;;;;;;;29.85;66.23;97368.48;1720734;81;21564;-88
2022/08/16 08:10:52;;;;;;;13.88;5.72;;;;;;;30.16;65.47;97370.58;1720557;81;21728;-88
2022/08/16 08:13:18;;;;;;;7.72;6.00;;;;;;;30.83;65.54;97367.19;1679294;83;21165;-85
2022/08/16 08:15:45;;;;;;;6.95;5.30;;;;;;;31.06;62.69;97358.72;1660747;84;20910;-88
2022/08/16 08:18:12;;;;;;;10.15;5.70;;;;;;;31.12;62.10;97357.00;1672247;83;21457;-86
2022/08/16 08:20:43;;;;;;;6.95;5.90;;;;;;;30.86;60.11;97365.73;1672619;83;21207;-88
2022/08/16 08:23:07;;;;;;;8.15;5.80;;;;;;;31.11;60.47;97354.64;1663620;84;20983;-85
2022/08/16 08:25:33;;;;;;;6.33;5.60;;;;;;;31.09;58.28;97356.45;1668759;83;21074;-85
2022/08/16 08:27:59;;;;;;;15.48;6.97;;;;;;;30.92;59.35;97362.41;1676433;83;20913;-87
2022/08/16 08:30:25;;;;;;;9.95;5.92;;;;;;;30.01;61.61;97361.64;1667946;84;21176;-85
2022/08/16 08:32:52;;;;;;;7.12;5.47;;;;;;;29.68;63.32;97365.55;1690518;83;20899;-85
2022/08/16 08:35:18;;;;;;;10.43;5.78;;;;;;;29.49;63.17;97369.03;1719757;81;20967;-88
2022/08/16 08:37:44;;;;;;;9.80;5.70;;;;;;;28.70;64.10;97367.77;1726743;81;21494;-85
2022/08/16 08:40:11;;;;;;;6.47;5.50;;;;;;;28.57;65.27;97371.70;1698033;82;20899;-88
2022/08/16 08:42:37;;;;;;;11.75;6.08;;;;;;;28.65;64.49;97374.59;1720436;81;21474;-88
2022/08/16 08:45:04;;;;;;;12.58;6.40;;;;;;;28.64;64.41;97377.80;1681486;83;20972;-88
2022/08/16 08:47:30;;;;;;;7.50;6.00;;;;;;;29.08;65.02;97379.70;1713750;81;21029;-88
2022/08/16 08:49:57;;;;;;;8.05;6.15;;;;;;;29.83;63.02;97380.08;1712168;81;21884;-88
2022/08/16 08:52:23;;;;;;;7.58;6.62;;;;;;;30.65;62.46;97384.89;1715407;81;21052;-88
2022/08/16 08:54:49;;;;;;;6.78;6.00;;;;;;;31.25;59.55;97384.34;1679772;83;21124;-89
2022/08/16 08:57:17;;;;;;;9.33;6.53;;;;;;;31.08;58.11;97384.86;1671096;83;20933;-88
2022/08/16 08:59:44;;;;;;;7.25;6.17;;;;;;;31.88;57.72;97386.35;1670993;83;21260;-89
2022/08/16 09:02:13;;;;;;;9.93;6.65;;;;;;;31.92;53.14;97382.05;1675696;83;21350;-85
2022/08/16 09:04:39;;;;;;;6.92;6.22;;;;;;;32.90;55.13;97379.15;1672090;83;21071;-89
2022/08/16 09:07:05;;;;;;;8.03;5.97;;;;;;;33.09;45.28;97376.81;1672394;83;21014;-86
2022/08/16 09:09:31;;;;;;;8.05;5.83;;;;;;;33.71;48.14;97383.61;1674569;83;20888;-85
2022/08/16 09:11:57;;;;;;;7.05;6.33;;;;;;;34.18;46.90;97381.70;1673684;83;21079;-89
2022/08/16 09:14:23;;;;;;;7.25;6.20;;;;;;;34.35;46.98;97380.91;1684055;82;22045;-86
2022/08/16 09:16:50;;;;;;;6.58;5.92;;;;;;;34.96;44.30;97382.45;1696971;81;21056;-89
2022/08/16 09:19:16;;;;;;;6.60;5.90;;;;;;;35.07;45.47;97380.64;1717035;81;21057;-89
2022/08/16 09:21:42;;;;;;;9.05;5.72;;;;;;;34.20;40.21;97383.43;1683490;83;21077;-90
2022/08/16 09:24:08;;;;;;;8.75;6.47;;;;;;;33.48;42.93;97380.49;1680947;83;21069;-85
2022/08/16 09:26:34;;;;;;;7.90;5.47;;;;;;;33.18;45.01;97381.16;1679791;83;20982;-86
2022/08/16 09:29:00;;;;;;;7.60;6.83;;;;;;;32.27;45.17;97378.36;1722241;81;21098;-88
2022/08/16 09:31:26;;;;;;;6.65;5.95;;;;;;;31.82;45.18;97377.50;1720542;81;20971;-86
2022/08/16 09:33:52;;;;;;;6.80;6.10;;;;;;;32.04;47.32;97381.34;1716593;81;20939;-85
2022/08/16 09:36:18;;;;;;;7.03;5.92;;;;;;;32.69;47.52;97374.91;1718606;81;20884;-88
2022/08/16 09:38:44;;;;;;;6.20;5.60;;;;;;;33.06;45.49;97384.08;1681812;83;21070;-85
2022/08/16 09:41:10;;;;;;;6.65;6.05;;;;;;;32.68;46.03;97382.53;1720354;81;21505;-86
2022/08/16 09:43:37;;;;;;;6.80;6.05;;;;;;;32.81;45.47;97382.56;1723839;81;20928;-89
2022/08/16 09:46:06;;;;;;;6.95;6.22;;;;;;;31.55;45.11;97387.50;1726462;81;21092;-86
2022/08/16 09:48:33;;;;;;;11.68;6.87;;;;;;;31.79;47.32;97388.16;1724487;81;21044;-85
2022/08/16 09:51:00;;;;;;;7.37;6.17;;;;;;;31.75;48.04;97387.44;1722025;81;21735;-87
2022/08/16 09:53:28;;;;;;;13.13;6.67;;;;;;;30.50;47.32;97389.94;1727050;81;21035;-87
2022/08/16 09:55:54;;;;;;;6.97;6.28;;;;;;;30.65;49.66;97391.30;1730910;81;23263;-86
2022/08/16 09:58:22;;;;;;;9.73;6.78;;;;;;;30.87;49.70;97398.67;1711407;81;20988;-88
2022/08/16 10:00:49;;;;;;;;;;;;;;;31.75;48.68;97395.22;1722578;81;21040;-86
2022/08/16 10:03:16;;;;;;;8.08;6.60;;;;;;;31.78;45.92;97396.38;1724182;82;21781;-85
2022/08/16 10:05:42;;;;;;;8.20;6.20;;;;;;;32.02;46.16;97396.41;1680028;83;20980;-88
2022/08/16 10:08:08;;;;;;;18.17;6.85;;;;;;;31.65;45.65;97399.84;1724487;81;21431;-88
2022/08/16 10:10:35;;;;;;;7.17;6.45;;;;;;;31.64;48.88;97396.09;1717175;81;21004;-88
2022/08/16 10:13:10;;;;;;;7.10;6.08;;;;;;;31.17;49.35;97403.25;1719288;81;21204;-85
2022/08/16 10:15:37;;;;;;;8.98;6.75;;;;;;;30.46;50.31;97402.59;1685496;83;21851;-85
2022/08/16 10:18:06;;;;;;;8.23;7.20;;;;;;;30.22;51.65;97400.41;1688895;83;21184;-85
2022/08/16 10:20:38;;;;;;;8.50;6.70;;;;;;;30.46;51.46;97404.60;1722011;81;21062;-85
2022/08/16 10:23:07;;;;;;;7.53;6.72;;;;;;;30.33;50.98;97407.99;1682002;82;21066;-85
2022/08/16 10:25:35;;;;;;;8.53;6.55;;;;;;;30.26;50.57;97405.34;1717345;81;21018;-86
2022/08/16 10:28:01;;;;;;;7.22;6.47;;;;;;;30.42;52.23;97408.84;1681594;83;21112;-85
2022/08/16 10:30:27;;;;;;;7.47;6.78;;;;;;;29.93;51.59;97402.86;1717273;81;21549;-88
2022/08/16 10:32:53;;;;;;;9.65;7.60;;;;;;;29.41;52.42;97392.63;1717030;81;21129;-87
2022/08/16 10:35:19;;;;;;;11.12;7.85;;;;;;;29.47;53.96;97383.34;1686696;83;21133;-86
2022/08/16 10:37:45;;;;;;;9.28;7.70;;;;;;;29.49;54.10;97387.17;1713054;81;20962;-88
2022/08/16 10:40:11;;;;;;;8.43;6.85;;;;;;;29.48;53.39;97389.72;1727637;81;22208;-85
2022/08/16 10:42:37;;;;;;;8.78;6.67;;;;;;;29.22;53.78;97382.90;1720974;81;20870;-87
2022/08/16 10:45:03;;;;;;;10.18;7.20;;;;;;;29.14;54.57;97384.20;1726637;81;20926;-85
2022/08/16 10:47:29;;;;;;;10.65;6.97;;;;;;;28.94;54.52;97383.45;1721607;81;21008;-87
2022/08/16 10:49:58;;;;;;;10.18;7.72;;;;;;;28.82;53.72;97390.15;1724784;81;21057;-85
2022/08/16 10:52:24;;;;;;;9.00;7.67;;;;;;;28.35;53.85;97380.07;1724775;81;21095;-87
2022/08/16 10:54:50;;;;;;;8.43;7.25;;;;;;;28.13;54.61;97380.85;1717542;81;21502;-88
2022/08/16 10:57:16;;;;;;;9.90;8.05;;;;;;;28.32;55.38;97380.91;1708567;81;20983;-88
2022/08/16 10:59:42;;;;;;;9.03;8.08;;;;;;;27.85;54.38;97385.23;1715919;83;20906;-88
2022/08/16 11:02:09;;;;;;;11.55;8.30;;;;;;;27.93;55.38;97379.81;1672275;83;21607;-85
2022/08/16 11:04:35;;;;;;;13.15;8.45;;;;;;;28.09;56.11;97378.69;1717827;81;21140;-79
2022/08/16 11:07:03;;;;;;;8.85;7.60;;;;;;;28.27;56.20;97376.53;1698336;81;21042;-81
2022/08/16 11:09:30;;;;;;;9.65;7.55;;;;;;;28.38;55.52;97377.88;1701273;81;21103;-68
2022/08/16 11:11:56;;;;;;;11.40;8.25;;;;;;;28.46;54.65;97374.39;1716897;81;21125;-80
2022/08/16 11:14:23;;;;;;;12.93;9.18;;;;;;;28.58;54.69;97371.09;1729243;81;20942;-82
2022/08/16 11:16:50;;;;;;;10.85;8.18;;;;;;;28.66;55.86;97375.39;1727126;81;21168;-89
2022/08/16 11:19:16;;;;;;;10.18;7.22;;;;;;;28.66;56.07;97368.42;1722749;81;21062;-85